sensor_id;sensor_type;location;lat;lon;timestamp;temperature;humidity
506;DHT22;551;48.524;9.056;2022-11-15T00:01:40;7.00;1.00
506;DHT22;551;48.524;9.056;2022-11-15T00:04:06;7.00;1.00
506;DHT22;551;48.524;9.056;2022-11-15T00:06:32;6.90;1.00
506;DHT22;551;48.524;9.056;2022-11-15T00:08:58;7.00;1.00
506;DHT22;551;48.524;9.056;2022-11-15T00:11:24;6.90;1.00
506;DHT22;551;48.524;9.056;2022-11-15T00:13:50;6.90;1.00
506;DHT22;551;48.524;9.056;2022-11-15T00:16:15;6.80;1.00
506;DHT22;551;48.524;9.056;2022-11-15T00:18:41;6.70;1.00
506;DHT22;551;48.524;9.056;2022-11-15T00:21:09;6.70;1.00
506;DHT22;551;48.524;9.056;2022-11-15T00:23:35;6.70;1.00
506;DHT22;551;48.524;9.056;2022-11-15T00:26:01;6.70;1.00
506;DHT22;551;48.524;9.056;2022-11-15T00:28:27;6.60;1.00
506;DHT22;551;48.524;9.056;2022-11-15T00:30:52;6.50;1.00
506;DHT22;551;48.524;9.056;2022-11-15T00:33:18;6.50;1.00
506;DHT22;551;48.524;9.056;2022-11-15T00:35:44;6.50;1.00
506;DHT22;551;48.524;9.056;2022-11-15T00:38:09;6.50;1.00
506;DHT22;551;48.524;9.056;2022-11-15T00:40:35;6.50;1.00
506;DHT22;551;48.524;9.056;2022-11-15T00:43:00;6.40;1.00
506;DHT22;551;48.524;9.056;2022-11-15T00:45:26;6.40;1.00
506;DHT22;551;48.524;9.056;2022-11-15T00:47:52;6.40;1.00
506;DHT22;551;48.524;9.056;2022-11-15T00:50:18;6.30;1.00
506;DHT22;551;48.524;9.056;2022-11-15T00:52:44;6.40;1.00
506;DHT22;551;48.524;9.056;2022-11-15T00:55:14;6.30;1.00
506;DHT22;551;48.524;9.056;2022-11-15T00:57:40;6.30;1.00
506;DHT22;551;48.524;9.056;2022-11-15T01:00:07;6.30;1.00
506;DHT22;551;48.524;9.056;2022-11-15T01:02:32;6.20;1.00
506;DHT22;551;48.524;9.056;2022-11-15T01:04:58;6.30;1.00
506;DHT22;551;48.524;9.056;2022-11-15T01:07:23;6.20;1.00
506;DHT22;551;48.524;9.056;2022-11-15T01:09:49;6.20;1.00
506;DHT22;551;48.524;9.056;2022-11-15T01:12:14;6.20;1.00
506;DHT22;551;48.524;9.056;2022-11-15T01:14:40;6.20;1.00
506;DHT22;551;48.524;9.056;2022-11-15T01:17:05;6.20;1.00
506;DHT22;551;48.524;9.056;2022-11-15T01:19:31;6.20;1.00
506;DHT22;551;48.524;9.056;2022-11-15T01:21:56;6.20;1.00
506;DHT22;551;48.524;9.056;2022-11-15T01:24:22;6.30;1.00
506;DHT22;551;48.524;9.056;2022-11-15T01:26:47;6.30;1.00
506;DHT22;551;48.524;9.056;2022-11-15T01:29:13;6.30;1.00
506;DHT22;551;48.524;9.056;2022-11-15T01:31:38;6.30;1.00
506;DHT22;551;48.524;9.056;2022-11-15T01:34:04;6.30;1.00
506;DHT22;551;48.524;9.056;2022-11-15T01:36:30;6.30;1.00
506;DHT22;551;48.524;9.056;2022-11-15T01:38:56;6.30;1.00
506;DHT22;551;48.524;9.056;2022-11-15T01:41:28;6.30;1.00
506;DHT22;551;48.524;9.056;2022-11-15T01:43:56;6.30;1.00
506;DHT22;551;48.524;9.056;2022-11-15T01:46:34;6.30;1.00
506;DHT22;551;48.524;9.056;2022-11-15T01:49:03;6.30;1.00
506;DHT22;551;48.524;9.056;2022-11-15T01:51:32;6.30;1.00
506;DHT22;551;48.524;9.056;2022-11-15T01:54:04;6.30;1.00
506;DHT22;551;48.524;9.056;2022-11-15T01:56:33;6.30;1.00
506;DHT22;551;48.524;9.056;2022-11-15T01:59:02;6.30;1.00
506;DHT22;551;48.524;9.056;2022-11-15T02:01:30;6.40;1.00
506;DHT22;551;48.524;9.056;2022-11-15T02:04:06;6.40;1.00
506;DHT22;551;48.524;9.056;2022-11-15T02:06:34;6.30;1.00
506;DHT22;551;48.524;9.056;2022-11-15T02:09:01;6.30;1.00
506;DHT22;551;48.524;9.056;2022-11-15T02:11:26;6.30;1.00
506;DHT22;551;48.524;9.056;2022-11-15T02:13:52;6.20;1.00
506;DHT22;551;48.524;9.056;2022-11-15T02:25:08;6.30;1.00
506;DHT22;551;48.524;9.056;2022-11-15T02:27:43;6.20;1.00
506;DHT22;551;48.524;9.056;2022-11-15T02:30:38;6.30;1.00
506;DHT22;551;48.524;9.056;2022-11-15T02:33:25;6.20;1.00
506;DHT22;551;48.524;9.056;2022-11-15T02:38:34;6.20;1.00
506;DHT22;551;48.524;9.056;2022-11-15T02:41:07;6.30;1.00
506;DHT22;551;48.524;9.056;2022-11-15T02:43:55;6.30;1.00
506;DHT22;551;48.524;9.056;2022-11-15T02:46:34;6.20;1.00
506;DHT22;551;48.524;9.056;2022-11-15T02:49:21;6.20;1.00
506;DHT22;551;48.524;9.056;2022-11-15T02:51:48;6.20;1.00
506;DHT22;551;48.524;9.056;2022-11-15T02:54:22;6.10;1.00
506;DHT22;551;48.524;9.056;2022-11-15T02:56:48;6.10;1.00
506;DHT22;551;48.524;9.056;2022-11-15T03:01:55;6.10;1.00
506;DHT22;551;48.524;9.056;2022-11-15T03:07:09;6.10;1.00
506;DHT22;551;48.524;9.056;2022-11-15T03:09:45;6.20;1.00
506;DHT22;551;48.524;9.056;2022-11-15T03:12:20;6.20;1.00
506;DHT22;551;48.524;9.056;2022-11-15T03:17:54;6.30;1.00
506;DHT22;551;48.524;9.056;2022-11-15T03:20:20;6.30;1.00
506;DHT22;551;48.524;9.056;2022-11-15T03:22:47;6.30;1.00
506;DHT22;551;48.524;9.056;2022-11-15T03:25:19;6.40;1.00
506;DHT22;551;48.524;9.056;2022-11-15T03:27:50;6.40;1.00
506;DHT22;551;48.524;9.056;2022-11-15T03:30:17;6.40;1.00
506;DHT22;551;48.524;9.056;2022-11-15T03:32:56;6.40;1.00
506;DHT22;551;48.524;9.056;2022-11-15T03:35:24;6.40;1.00
506;DHT22;551;48.524;9.056;2022-11-15T03:40:49;6.40;1.00
506;DHT22;551;48.524;9.056;2022-11-15T03:43:41;6.40;1.00
506;DHT22;551;48.524;9.056;2022-11-15T03:46:46;6.40;1.00
506;DHT22;551;48.524;9.056;2022-11-15T03:49:27;6.40;1.00
506;DHT22;551;48.524;9.056;2022-11-15T03:51:56;6.40;1.00
506;DHT22;551;48.524;9.056;2022-11-15T03:54:22;6.40;1.00
506;DHT22;551;48.524;9.056;2022-11-15T03:56:48;6.30;1.00
506;DHT22;551;48.524;9.056;2022-11-15T03:59:13;6.30;1.00
506;DHT22;551;48.524;9.056;2022-11-15T04:01:40;6.20;1.00
506;DHT22;551;48.524;9.056;2022-11-15T04:04:06;6.20;1.00
506;DHT22;551;48.524;9.056;2022-11-15T04:06:31;6.10;1.00
506;DHT22;551;48.524;9.056;2022-11-15T04:08:57;6.10;1.00
506;DHT22;551;48.524;9.056;2022-11-15T04:11:22;6.10;1.00
506;DHT22;551;48.524;9.056;2022-11-15T04:13:48;6.00;1.00
506;DHT22;551;48.524;9.056;2022-11-15T04:16:13;6.10;1.00
506;DHT22;551;48.524;9.056;2022-11-15T04:18:39;6.10;1.00
506;DHT22;551;48.524;9.056;2022-11-15T04:21:04;6.10;1.00
506;DHT22;551;48.524;9.056;2022-11-15T04:23:48;6.10;1.00
506;DHT22;551;48.524;9.056;2022-11-15T04:26:22;6.20;1.00
506;DHT22;551;48.524;9.056;2022-11-15T04:28:48;6.20;1.00
506;DHT22;551;48.524;9.056;2022-11-15T04:31:32;6.20;1.00
506;DHT22;551;48.524;9.056;2022-11-15T04:33:57;6.20;1.00
506;DHT22;551;48.524;9.056;2022-11-15T04:36:23;6.20;1.00
506;DHT22;551;48.524;9.056;2022-11-15T04:39:08;6.30;1.00
506;DHT22;551;48.524;9.056;2022-11-15T04:41:34;6.30;1.00
506;DHT22;551;48.524;9.056;2022-11-15T04:43:59;6.30;1.00
506;DHT22;551;48.524;9.056;2022-11-15T04:46:25;6.30;1.00
506;DHT22;551;48.524;9.056;2022-11-15T04:48:52;6.30;1.00
506;DHT22;551;48.524;9.056;2022-11-15T04:51:18;6.30;1.00
506;DHT22;551;48.524;9.056;2022-11-15T04:53:44;6.20;1.00
506;DHT22;551;48.524;9.056;2022-11-15T04:56:09;6.10;1.00
506;DHT22;551;48.524;9.056;2022-11-15T04:58:35;6.10;1.00
506;DHT22;551;48.524;9.056;2022-11-15T05:01:08;6.00;1.00
506;DHT22;551;48.524;9.056;2022-11-15T05:03:34;6.00;1.00
506;DHT22;551;48.524;9.056;2022-11-15T05:06:18;6.10;1.00
506;DHT22;551;48.524;9.056;2022-11-15T05:08:43;6.10;1.00
506;DHT22;551;48.524;9.056;2022-11-15T05:11:09;6.20;1.00
506;DHT22;551;48.524;9.056;2022-11-15T05:13:34;6.20;1.00
506;DHT22;551;48.524;9.056;2022-11-15T05:16:00;6.30;1.00
506;DHT22;551;48.524;9.056;2022-11-15T05:18:25;6.30;1.00
506;DHT22;551;48.524;9.056;2022-11-15T05:20:51;6.40;1.00
506;DHT22;551;48.524;9.056;2022-11-15T05:23:16;6.40;1.00
506;DHT22;551;48.524;9.056;2022-11-15T05:25:42;6.40;1.00
506;DHT22;551;48.524;9.056;2022-11-15T05:28:08;6.50;1.00
506;DHT22;551;48.524;9.056;2022-11-15T05:30:33;6.40;1.00
506;DHT22;551;48.524;9.056;2022-11-15T05:32:59;6.50;1.00
506;DHT22;551;48.524;9.056;2022-11-15T05:35:37;6.50;1.00
506;DHT22;551;48.524;9.056;2022-11-15T05:38:03;6.50;1.00
506;DHT22;551;48.524;9.056;2022-11-15T05:40:30;6.50;1.00
506;DHT22;551;48.524;9.056;2022-11-15T05:42:57;6.50;1.00
506;DHT22;551;48.524;9.056;2022-11-15T05:45:23;6.50;1.00
506;DHT22;551;48.524;9.056;2022-11-15T05:47:49;6.50;1.00
506;DHT22;551;48.524;9.056;2022-11-15T05:50:16;6.50;1.00
506;DHT22;551;48.524;9.056;2022-11-15T05:52:43;6.50;1.00
506;DHT22;551;48.524;9.056;2022-11-15T05:55:11;6.50;1.00
506;DHT22;551;48.524;9.056;2022-11-15T05:57:38;6.40;1.00
506;DHT22;551;48.524;9.056;2022-11-15T06:00:04;6.30;1.00
506;DHT22;551;48.524;9.056;2022-11-15T06:02:30;6.30;1.00
506;DHT22;551;48.524;9.056;2022-11-15T06:04:55;6.30;1.00
506;DHT22;551;48.524;9.056;2022-11-15T06:07:21;6.30;1.00
506;DHT22;551;48.524;9.056;2022-11-15T06:09:46;6.30;1.00
506;DHT22;551;48.524;9.056;2022-11-15T06:12:12;6.30;1.00
506;DHT22;551;48.524;9.056;2022-11-15T06:14:38;6.30;1.00
506;DHT22;551;48.524;9.056;2022-11-15T06:17:03;6.30;1.00
506;DHT22;551;48.524;9.056;2022-11-15T06:19:29;6.30;1.00
506;DHT22;551;48.524;9.056;2022-11-15T06:21:58;6.30;1.00
506;DHT22;551;48.524;9.056;2022-11-15T06:24:24;6.30;1.00
506;DHT22;551;48.524;9.056;2022-11-15T06:26:50;6.30;1.00
506;DHT22;551;48.524;9.056;2022-11-15T06:29:15;6.40;1.00
506;DHT22;551;48.524;9.056;2022-11-15T06:31:41;6.40;1.00
506;DHT22;551;48.524;9.056;2022-11-15T06:34:06;6.40;1.00
506;DHT22;551;48.524;9.056;2022-11-15T06:36:34;6.50;1.00
506;DHT22;551;48.524;9.056;2022-11-15T06:39:00;6.50;1.00
506;DHT22;551;48.524;9.056;2022-11-15T06:41:25;6.60;1.00
506;DHT22;551;48.524;9.056;2022-11-15T06:43:51;6.70;1.00
506;DHT22;551;48.524;9.056;2022-11-15T06:46:16;6.70;1.00
506;DHT22;551;48.524;9.056;2022-11-15T06:48:42;6.70;1.00
506;DHT22;551;48.524;9.056;2022-11-15T06:51:07;6.80;1.00
506;DHT22;551;48.524;9.056;2022-11-15T06:53:33;6.80;1.00
506;DHT22;551;48.524;9.056;2022-11-15T06:56:04;6.90;1.00
506;DHT22;551;48.524;9.056;2022-11-15T06:58:30;6.90;1.00
506;DHT22;551;48.524;9.056;2022-11-15T07:01:01;7.00;1.00
506;DHT22;551;48.524;9.056;2022-11-15T07:03:27;7.00;1.00
506;DHT22;551;48.524;9.056;2022-11-15T07:05:54;7.00;1.00
506;DHT22;551;48.524;9.056;2022-11-15T07:08:22;7.20;1.00
506;DHT22;551;48.524;9.056;2022-11-15T07:10:47;7.20;1.00
506;DHT22;551;48.524;9.056;2022-11-15T07:13:13;7.30;1.00
506;DHT22;551;48.524;9.056;2022-11-15T07:15:39;7.40;1.00
506;DHT22;551;48.524;9.056;2022-11-15T07:18:04;7.50;1.00
506;DHT22;551;48.524;9.056;2022-11-15T07:20:30;7.60;1.00
506;DHT22;551;48.524;9.056;2022-11-15T07:23:13;7.60;1.00
506;DHT22;551;48.524;9.056;2022-11-15T07:25:39;7.80;1.00
506;DHT22;551;48.524;9.056;2022-11-15T07:28:04;8.00;1.00
506;DHT22;551;48.524;9.056;2022-11-15T07:30:30;8.30;1.00
506;DHT22;551;48.524;9.056;2022-11-15T07:32:59;8.40;1.00
506;DHT22;551;48.524;9.056;2022-11-15T07:35:26;8.60;1.00
506;DHT22;551;48.524;9.056;2022-11-15T07:38:02;8.90;1.00
506;DHT22;551;48.524;9.056;2022-11-15T07:40:30;9.20;1.00
506;DHT22;551;48.524;9.056;2022-11-15T07:43:04;9.40;1.00
506;DHT22;551;48.524;9.056;2022-11-15T07:45:30;9.60;1.00
506;DHT22;551;48.524;9.056;2022-11-15T07:47:56;9.50;1.00
506;DHT22;551;48.524;9.056;2022-11-15T07:50:22;9.50;1.00
506;DHT22;551;48.524;9.056;2022-11-15T07:52:51;9.50;1.00
506;DHT22;551;48.524;9.056;2022-11-15T07:55:18;9.50;1.00
506;DHT22;551;48.524;9.056;2022-11-15T07:57:43;9.60;1.00
506;DHT22;551;48.524;9.056;2022-11-15T08:00:09;9.60;1.00
506;DHT22;551;48.524;9.056;2022-11-15T08:02:35;9.60;1.00
506;DHT22;551;48.524;9.056;2022-11-15T08:05:00;9.60;1.00
506;DHT22;551;48.524;9.056;2022-11-15T08:07:29;9.60;1.00
506;DHT22;551;48.524;9.056;2022-11-15T08:09:55;9.60;1.00
506;DHT22;551;48.524;9.056;2022-11-15T08:12:21;9.70;1.00
506;DHT22;551;48.524;9.056;2022-11-15T08:14:47;9.80;1.00
506;DHT22;551;48.524;9.056;2022-11-15T08:17:13;9.90;1.00
506;DHT22;551;48.524;9.056;2022-11-15T08:19:38;10.00;1.00
506;DHT22;551;48.524;9.056;2022-11-15T08:22:04;10.00;1.00
506;DHT22;551;48.524;9.056;2022-11-15T08:24:30;10.50;1.00
506;DHT22;551;48.524;9.056;2022-11-15T08:26:55;11.00;1.00
506;DHT22;551;48.524;9.056;2022-11-15T08:29:21;11.40;1.00
506;DHT22;551;48.524;9.056;2022-11-15T08:31:46;11.70;1.00
506;DHT22;551;48.524;9.056;2022-11-15T08:34:12;11.60;1.00
506;DHT22;551;48.524;9.056;2022-11-15T08:36:37;11.60;1.00
506;DHT22;551;48.524;9.056;2022-11-15T08:39:03;11.60;1.00
506;DHT22;551;48.524;9.056;2022-11-15T08:41:38;11.50;1.00
506;DHT22;551;48.524;9.056;2022-11-15T08:44:04;11.50;1.00
506;DHT22;551;48.524;9.056;2022-11-15T08:46:30;11.40;1.00
506;DHT22;551;48.524;9.056;2022-11-15T08:48:55;11.40;1.00
506;DHT22;551;48.524;9.056;2022-11-15T08:51:21;11.40;1.00
506;DHT22;551;48.524;9.056;2022-11-15T08:53:47;11.40;1.00
506;DHT22;551;48.524;9.056;2022-11-15T08:56:14;11.50;1.00
506;DHT22;551;48.524;9.056;2022-11-15T08:58:40;11.70;1.00
506;DHT22;551;48.524;9.056;2022-11-15T09:01:06;12.20;1.00
506;DHT22;551;48.524;9.056;2022-11-15T09:03:31;12.40;1.00
506;DHT22;551;48.524;9.056;2022-11-15T09:05:58;12.90;1.00
506;DHT22;551;48.524;9.056;2022-11-15T09:08:25;13.10;1.00
506;DHT22;551;48.524;9.056;2022-11-15T09:10:51;13.70;1.00
506;DHT22;551;48.524;9.056;2022-11-15T09:13:16;14.20;1.00
506;DHT22;551;48.524;9.056;2022-11-15T09:15:42;13.90;1.00
506;DHT22;551;48.524;9.056;2022-11-15T09:18:08;13.80;1.00
506;DHT22;551;48.524;9.056;2022-11-15T09:20:33;13.90;1.00
506;DHT22;551;48.524;9.056;2022-11-15T09:23:02;14.20;1.00
506;DHT22;551;48.524;9.056;2022-11-15T09:25:29;14.70;1.00
506;DHT22;551;48.524;9.056;2022-11-15T09:27:54;15.20;1.00
506;DHT22;551;48.524;9.056;2022-11-15T09:30:20;15.20;1.00
506;DHT22;551;48.524;9.056;2022-11-15T09:32:46;15.10;1.00
506;DHT22;551;48.524;9.056;2022-11-15T09:35:11;14.80;1.00
506;DHT22;551;48.524;9.056;2022-11-15T09:37:37;14.50;1.00
506;DHT22;551;48.524;9.056;2022-11-15T09:40:03;14.30;1.00
506;DHT22;551;48.524;9.056;2022-11-15T09:42:59;14.20;1.00
506;DHT22;551;48.524;9.056;2022-11-15T09:45:34;13.90;1.00
506;DHT22;551;48.524;9.056;2022-11-15T09:50:49;13.60;1.00
506;DHT22;551;48.524;9.056;2022-11-15T09:53:27;13.70;1.00
506;DHT22;551;48.524;9.056;2022-11-15T09:56:02;13.90;1.00
506;DHT22;551;48.524;9.056;2022-11-15T09:58:39;13.80;1.00
506;DHT22;551;48.524;9.056;2022-11-15T10:01:16;13.90;1.00
506;DHT22;551;48.524;9.056;2022-11-15T10:03:42;14.10;1.00
506;DHT22;551;48.524;9.056;2022-11-15T10:06:22;13.80;1.00
506;DHT22;551;48.524;9.056;2022-11-15T10:11:37;14.00;1.00
506;DHT22;551;48.524;9.056;2022-11-15T10:14:13;13.80;1.00
506;DHT22;551;48.524;9.056;2022-11-15T10:19:54;13.50;1.00
506;DHT22;551;48.524;9.056;2022-11-15T10:24:58;13.60;1.00
506;DHT22;551;48.524;9.056;2022-11-15T10:27:25;13.60;1.00
506;DHT22;551;48.524;9.056;2022-11-15T10:29:51;13.50;1.00
506;DHT22;551;48.524;9.056;2022-11-15T10:32:19;13.50;1.00
506;DHT22;551;48.524;9.056;2022-11-15T10:34:47;13.60;1.00
506;DHT22;551;48.524;9.056;2022-11-15T10:37:12;13.60;1.00
506;DHT22;551;48.524;9.056;2022-11-15T10:39:38;13.60;1.00
506;DHT22;551;48.524;9.056;2022-11-15T10:42:36;13.60;1.00
506;DHT22;551;48.524;9.056;2022-11-15T10:45:01;13.80;1.00
506;DHT22;551;48.524;9.056;2022-11-15T10:47:30;13.90;1.00
506;DHT22;551;48.524;9.056;2022-11-15T10:50:00;14.00;1.00
506;DHT22;551;48.524;9.056;2022-11-15T10:52:27;13.90;1.00
506;DHT22;551;48.524;9.056;2022-11-15T10:54:55;13.90;1.00
506;DHT22;551;48.524;9.056;2022-11-15T10:57:24;13.80;1.00
506;DHT22;551;48.524;9.056;2022-11-15T11:00:36;13.70;1.00
506;DHT22;551;48.524;9.056;2022-11-15T11:03:03;13.50;1.00
506;DHT22;551;48.524;9.056;2022-11-15T11:05:38;13.40;1.00
506;DHT22;551;48.524;9.056;2022-11-15T11:10:58;13.50;1.00
506;DHT22;551;48.524;9.056;2022-11-15T11:13:35;13.50;1.00
506;DHT22;551;48.524;9.056;2022-11-15T11:21:13;13.70;1.00
506;DHT22;551;48.524;9.056;2022-11-15T11:23:51;13.70;1.00
506;DHT22;551;48.524;9.056;2022-11-15T11:26:31;13.80;1.00
506;DHT22;551;48.524;9.056;2022-11-15T11:34:55;13.90;1.00
506;DHT22;551;48.524;9.056;2022-11-15T11:37:54;14.00;1.00
506;DHT22;551;48.524;9.056;2022-11-15T11:43:07;14.60;1.00
506;DHT22;551;48.524;9.056;2022-11-15T11:48:57;14.60;1.00
506;DHT22;551;48.524;9.056;2022-11-15T11:51:30;14.60;1.00
506;DHT22;551;48.524;9.056;2022-11-15T11:54:06;14.60;1.00
506;DHT22;551;48.524;9.056;2022-11-15T11:56:37;14.60;1.00
506;DHT22;551;48.524;9.056;2022-11-15T11:59:27;14.60;1.00
506;DHT22;551;48.524;9.056;2022-11-15T12:01:54;14.80;1.00
506;DHT22;551;48.524;9.056;2022-11-15T12:04:38;14.80;1.00
506;DHT22;551;48.524;9.056;2022-11-15T12:07:17;14.80;1.00
506;DHT22;551;48.524;9.056;2022-11-15T12:09:58;14.60;1.00
506;DHT22;551;48.524;9.056;2022-11-15T12:15:39;14.50;1.00
506;DHT22;551;48.524;9.056;2022-11-15T12:18:12;14.60;1.00
506;DHT22;551;48.524;9.056;2022-11-15T12:20:47;14.70;1.00
506;DHT22;551;48.524;9.056;2022-11-15T12:23:31;14.60;1.00
506;DHT22;551;48.524;9.056;2022-11-15T12:26:08;14.70;1.00
506;DHT22;551;48.524;9.056;2022-11-15T12:28:54;14.90;1.00
506;DHT22;551;48.524;9.056;2022-11-15T12:31:39;15.00;1.00
506;DHT22;551;48.524;9.056;2022-11-15T12:36:46;14.90;1.00
506;DHT22;551;48.524;9.056;2022-11-15T12:39:14;14.80;1.00
506;DHT22;551;48.524;9.056;2022-11-15T12:41:41;14.90;1.00
506;DHT22;551;48.524;9.056;2022-11-15T12:44:13;15.00;1.00
506;DHT22;551;48.524;9.056;2022-11-15T13:04:46;15.10;1.00
506;DHT22;551;48.524;9.056;2022-11-15T13:10:00;15.10;1.00
506;DHT22;551;48.524;9.056;2022-11-15T13:17:36;15.00;1.00
506;DHT22;551;48.524;9.056;2022-11-15T13:22:46;15.10;1.00
506;DHT22;551;48.524;9.056;2022-11-15T13:30:52;15.00;1.00
506;DHT22;551;48.524;9.056;2022-11-15T13:33:37;15.00;1.00
506;DHT22;551;48.524;9.056;2022-11-15T13:36:08;14.90;1.00
506;DHT22;551;48.524;9.056;2022-11-15T13:38:42;14.80;1.00
506;DHT22;551;48.524;9.056;2022-11-15T13:41:18;14.70;1.00
506;DHT22;551;48.524;9.056;2022-11-15T13:43:44;14.60;1.00
506;DHT22;551;48.524;9.056;2022-11-15T13:46:30;14.50;1.00
506;DHT22;551;48.524;9.056;2022-11-15T13:49:01;14.40;1.00
506;DHT22;551;48.524;9.056;2022-11-15T13:51:35;14.30;1.00
506;DHT22;551;48.524;9.056;2022-11-15T13:57:21;14.10;1.00
506;DHT22;551;48.524;9.056;2022-11-15T13:59:55;14.10;1.00
506;DHT22;551;48.524;9.056;2022-11-15T14:02:27;14.10;1.00
506;DHT22;551;48.524;9.056;2022-11-15T14:04:58;14.10;1.00
506;DHT22;551;48.524;9.056;2022-11-15T14:07:27;14.10;1.00
506;DHT22;551;48.524;9.056;2022-11-15T14:09:54;14.20;1.00
506;DHT22;551;48.524;9.056;2022-11-15T14:12:32;14.30;1.00
506;DHT22;551;48.524;9.056;2022-11-15T14:15:39;14.30;1.00
506;DHT22;551;48.524;9.056;2022-11-15T14:18:05;14.30;1.00
506;DHT22;551;48.524;9.056;2022-11-15T14:20:38;14.30;1.00
506;DHT22;551;48.524;9.056;2022-11-15T14:23:25;14.30;1.00
506;DHT22;551;48.524;9.056;2022-11-15T14:25:58;14.30;1.00
506;DHT22;551;48.524;9.056;2022-11-15T14:30:51;14.30;1.00
506;DHT22;551;48.524;9.056;2022-11-15T14:33:21;14.20;1.00
506;DHT22;551;48.524;9.056;2022-11-15T14:35:47;14.20;1.00
506;DHT22;551;48.524;9.056;2022-11-15T14:38:13;14.20;1.00
506;DHT22;551;48.524;9.056;2022-11-15T14:40:39;14.20;1.00
506;DHT22;551;48.524;9.056;2022-11-15T14:43:09;14.10;1.00
506;DHT22;551;48.524;9.056;2022-11-15T14:45:35;14.10;1.00
506;DHT22;551;48.524;9.056;2022-11-15T14:48:01;14.10;1.00
506;DHT22;551;48.524;9.056;2022-11-15T14:50:26;14.10;1.00
506;DHT22;551;48.524;9.056;2022-11-15T14:52:53;14.00;1.00
506;DHT22;551;48.524;9.056;2022-11-15T14:55:26;13.90;1.00
506;DHT22;551;48.524;9.056;2022-11-15T14:57:54;13.70;1.00
506;DHT22;551;48.524;9.056;2022-11-15T15:00:20;13.60;1.00
506;DHT22;551;48.524;9.056;2022-11-15T15:02:47;13.60;1.00
506;DHT22;551;48.524;9.056;2022-11-15T15:05:19;13.50;1.00
506;DHT22;551;48.524;9.056;2022-11-15T15:07:45;13.50;1.00
506;DHT22;551;48.524;9.056;2022-11-15T15:10:11;13.50;1.00
506;DHT22;551;48.524;9.056;2022-11-15T15:12:37;13.50;1.00
506;DHT22;551;48.524;9.056;2022-11-15T15:15:03;13.40;1.00
506;DHT22;551;48.524;9.056;2022-11-15T15:17:28;13.50;1.00
506;DHT22;551;48.524;9.056;2022-11-15T15:19:54;13.50;1.00
506;DHT22;551;48.524;9.056;2022-11-15T15:22:20;13.40;1.00
506;DHT22;551;48.524;9.056;2022-11-15T15:24:50;13.40;1.00
506;DHT22;551;48.524;9.056;2022-11-15T15:27:16;13.30;1.00
506;DHT22;551;48.524;9.056;2022-11-15T15:29:42;13.30;1.00
506;DHT22;551;48.524;9.056;2022-11-15T15:32:08;13.20;1.00
506;DHT22;551;48.524;9.056;2022-11-15T15:34:34;13.20;1.00
506;DHT22;551;48.524;9.056;2022-11-15T15:39:48;13.10;1.00
506;DHT22;551;48.524;9.056;2022-11-15T15:42:13;12.90;1.00
506;DHT22;551;48.524;9.056;2022-11-15T15:44:39;12.80;1.00
506;DHT22;551;48.524;9.056;2022-11-15T15:47:11;12.70;1.00
506;DHT22;551;48.524;9.056;2022-11-15T15:49:37;12.70;1.00
506;DHT22;551;48.524;9.056;2022-11-15T15:52:03;12.70;1.00
506;DHT22;551;48.524;9.056;2022-11-15T15:54:28;12.70;1.00
506;DHT22;551;48.524;9.056;2022-11-15T15:56:54;12.70;1.00
506;DHT22;551;48.524;9.056;2022-11-15T15:59:19;12.60;1.00
506;DHT22;551;48.524;9.056;2022-11-15T16:01:45;12.60;1.00
506;DHT22;551;48.524;9.056;2022-11-15T16:04:10;12.60;1.00
506;DHT22;551;48.524;9.056;2022-11-15T16:06:38;12.60;1.00
506;DHT22;551;48.524;9.056;2022-11-15T16:09:05;12.60;1.00
506;DHT22;551;48.524;9.056;2022-11-15T16:11:30;12.60;1.00
506;DHT22;551;48.524;9.056;2022-11-15T16:13:56;12.50;1.00
506;DHT22;551;48.524;9.056;2022-11-15T16:16:24;12.50;1.00
506;DHT22;551;48.524;9.056;2022-11-15T16:18:49;12.50;1.00
506;DHT22;551;48.524;9.056;2022-11-15T16:21:15;12.50;1.00
506;DHT22;551;48.524;9.056;2022-11-15T16:23:41;12.50;1.00
506;DHT22;551;48.524;9.056;2022-11-15T16:26:21;12.50;1.00
506;DHT22;551;48.524;9.056;2022-11-15T16:28:49;12.40;1.00
506;DHT22;551;48.524;9.056;2022-11-15T16:31:15;12.30;1.00
506;DHT22;551;48.524;9.056;2022-11-15T16:33:43;12.20;1.00
506;DHT22;551;48.524;9.056;2022-11-15T16:36:19;12.20;1.00
506;DHT22;551;48.524;9.056;2022-11-15T16:38:46;12.20;1.00
506;DHT22;551;48.524;9.056;2022-11-15T16:41:11;12.20;1.00
506;DHT22;551;48.524;9.056;2022-11-15T16:43:37;12.20;1.00
506;DHT22;551;48.524;9.056;2022-11-15T16:46:11;12.20;1.00
506;DHT22;551;48.524;9.056;2022-11-15T16:48:37;12.30;1.00
506;DHT22;551;48.524;9.056;2022-11-15T16:51:04;12.30;1.00
506;DHT22;551;48.524;9.056;2022-11-15T16:53:30;12.30;1.00
506;DHT22;551;48.524;9.056;2022-11-15T16:55:56;12.20;1.00
506;DHT22;551;48.524;9.056;2022-11-15T16:58:22;12.20;1.00
506;DHT22;551;48.524;9.056;2022-11-15T17:00:55;12.30;1.00
506;DHT22;551;48.524;9.056;2022-11-15T17:03:22;12.30;1.00
506;DHT22;551;48.524;9.056;2022-11-15T17:05:48;12.30;1.00
506;DHT22;551;48.524;9.056;2022-11-15T17:08:14;12.20;1.00
506;DHT22;551;48.524;9.056;2022-11-15T17:10:39;12.30;1.00
506;DHT22;551;48.524;9.056;2022-11-15T17:13:11;12.20;1.00
506;DHT22;551;48.524;9.056;2022-11-15T17:15:37;12.20;1.00
506;DHT22;551;48.524;9.056;2022-11-15T17:18:03;12.10;1.00
506;DHT22;551;48.524;9.056;2022-11-15T17:20:28;12.00;1.00
506;DHT22;551;48.524;9.056;2022-11-15T17:22:55;12.00;1.00
506;DHT22;551;48.524;9.056;2022-11-15T17:25:20;12.10;1.00
506;DHT22;551;48.524;9.056;2022-11-15T17:27:46;12.10;1.00
506;DHT22;551;48.524;9.056;2022-11-15T17:30:12;12.10;1.00
506;DHT22;551;48.524;9.056;2022-11-15T17:32:40;12.00;1.00
506;DHT22;551;48.524;9.056;2022-11-15T17:35:05;12.10;1.00
506;DHT22;551;48.524;9.056;2022-11-15T17:37:32;12.10;1.00
506;DHT22;551;48.524;9.056;2022-11-15T17:39:57;12.10;1.00
506;DHT22;551;48.524;9.056;2022-11-15T17:42:23;12.10;1.00
506;DHT22;551;48.524;9.056;2022-11-15T17:44:48;12.10;1.00
506;DHT22;551;48.524;9.056;2022-11-15T17:47:14;12.10;1.00
506;DHT22;551;48.524;9.056;2022-11-15T17:49:39;12.10;1.00
506;DHT22;551;48.524;9.056;2022-11-15T17:52:05;12.00;1.00
506;DHT22;551;48.524;9.056;2022-11-15T17:54:31;12.00;1.00
506;DHT22;551;48.524;9.056;2022-11-15T17:56:56;12.00;1.00
506;DHT22;551;48.524;9.056;2022-11-15T17:59:22;12.00;1.00
506;DHT22;551;48.524;9.056;2022-11-15T18:01:47;11.90;1.00
506;DHT22;551;48.524;9.056;2022-11-15T18:04:13;12.00;1.00
506;DHT22;551;48.524;9.056;2022-11-15T18:06:40;12.00;1.00
506;DHT22;551;48.524;9.056;2022-11-15T18:09:06;12.00;1.00
506;DHT22;551;48.524;9.056;2022-11-15T18:11:35;12.00;1.00
506;DHT22;551;48.524;9.056;2022-11-15T18:14:06;11.90;1.00
506;DHT22;551;48.524;9.056;2022-11-15T18:16:34;11.90;1.00
506;DHT22;551;48.524;9.056;2022-11-15T18:19:00;11.90;1.00
506;DHT22;551;48.524;9.056;2022-11-15T18:21:28;11.80;1.00
506;DHT22;551;48.524;9.056;2022-11-15T18:23:59;11.80;1.00
506;DHT22;551;48.524;9.056;2022-11-15T18:26:26;11.80;1.00
506;DHT22;551;48.524;9.056;2022-11-15T18:28:54;11.80;1.00
506;DHT22;551;48.524;9.056;2022-11-15T18:31:25;11.80;1.00
506;DHT22;551;48.524;9.056;2022-11-15T18:33:51;11.70;1.00
506;DHT22;551;48.524;9.056;2022-11-15T18:36:20;11.70;1.00
506;DHT22;551;48.524;9.056;2022-11-15T18:38:46;11.80;1.00
506;DHT22;551;48.524;9.056;2022-11-15T18:41:17;11.80;1.00
506;DHT22;551;48.524;9.056;2022-11-15T18:43:45;11.80;1.00
506;DHT22;551;48.524;9.056;2022-11-15T18:46:13;11.80;1.00
506;DHT22;551;48.524;9.056;2022-11-15T18:48:41;11.90;1.00
506;DHT22;551;48.524;9.056;2022-11-15T18:51:09;11.90;1.00
506;DHT22;551;48.524;9.056;2022-11-15T18:53:36;11.80;1.00